createdAt,value
2022-11-04T00:01:39.734Z,100.00
2022-11-04T00:04:08.338Z,100.00
2022-11-04T00:06:36.900Z,100.00
2022-11-04T00:09:06.276Z,100.00
2022-11-04T00:11:52.097Z,100.00
2022-11-04T00:14:21.086Z,100.00
2022-11-04T00:17:08.221Z,100.00
2022-11-04T00:19:50.416Z,100.00
2022-11-04T00:22:36.419Z,100.00
2022-11-04T00:25:22.965Z,100.00
2022-11-04T00:28:09.179Z,100.00
2022-11-04T00:30:37.762Z,100.00
2022-11-04T00:33:24.996Z,100.00
2022-11-04T00:35:54.626Z,100.00
2022-11-04T00:38:23.307Z,100.00
2022-11-04T00:40:51.950Z,100.00
2022-11-04T00:43:20.316Z,100.00
2022-11-04T00:45:48.642Z,100.00
2022-11-04T00:48:18.268Z,100.00
2022-11-04T00:50:46.601Z,100.00
2022-11-04T00:53:14.934Z,100.00
2022-11-04T00:55:43.277Z,100.00
2022-11-04T00:58:11.553Z,100.00
2022-11-04T01:00:40.622Z,100.00
2022-11-04T01:03:09.188Z,100.00
2022-11-04T01:05:39.938Z,100.00
2022-11-04T01:08:08.099Z,100.00
2022-11-04T01:10:36.673Z,100.00
2022-11-04T01:13:05.220Z,100.00
2022-11-04T01:15:33.711Z,100.00
2022-11-04T01:18:02.184Z,100.00
2022-11-04T01:20:30.538Z,100.00
2022-11-04T01:23:00.288Z,100.00
2022-11-04T01:25:28.549Z,100.00
2022-11-04T01:27:57.053Z,100.00
2022-11-04T01:30:25.755Z,100.00
2022-11-04T01:32:54.005Z,100.00
2022-11-04T01:35:22.515Z,100.00
2022-11-04T01:37:50.767Z,100.00
2022-11-04T01:40:20.430Z,100.00
2022-11-04T01:42:48.807Z,100.00
2022-11-04T01:45:18.438Z,100.00
2022-11-04T01:47:50.337Z,100.00
2022-11-04T01:50:21.945Z,100.00
2022-11-04T01:52:52.989Z,100.00
2022-11-04T01:55:27.361Z,100.00
2022-11-04T01:58:00.145Z,100.00
2022-11-04T02:00:28.400Z,100.00
2022-11-04T02:03:01.028Z,100.00
2022-11-04T02:05:31.207Z,100.00
2022-11-04T02:08:01.198Z,100.00
2022-11-04T02:10:32.206Z,100.00
2022-11-04T02:13:01.130Z,100.00
2022-11-04T02:15:37.251Z,100.00
2022-11-04T02:18:14.400Z,100.00
2022-11-04T02:20:54.884Z,100.00
2022-11-04T02:23:57.505Z,100.00
2022-11-04T02:26:59.036Z,100.00
2022-11-04T02:30:00.085Z,100.00
2022-11-04T02:32:35.594Z,100.00
2022-11-04T02:35:07.039Z,100.00
2022-11-04T02:37:42.384Z,100.00
2022-11-04T02:40:20.932Z,100.00
2022-11-04T02:42:54.598Z,100.00
2022-11-04T02:45:27.012Z,100.00
2022-11-04T02:47:57.835Z,100.00
2022-11-04T02:50:30.863Z,100.00
2022-11-04T02:53:03.399Z,100.00
2022-11-04T02:55:34.619Z,100.00
2022-11-04T02:58:04.457Z,100.00
2022-11-04T03:00:35.389Z,100.00
2022-11-04T03:03:08.165Z,100.00
2022-11-04T03:05:38.682Z,100.00
2022-11-04T03:08:10.657Z,100.00
2022-11-04T03:10:42.149Z,100.00
2022-11-04T03:13:14.643Z,100.00
2022-11-04T03:15:51.285Z,100.00
2022-11-04T03:18:24.685Z,100.00
2022-11-04T03:20:53.197Z,100.00
2022-11-04T03:23:21.903Z,100.00
2022-11-04T03:25:53.262Z,100.00
2022-11-04T03:28:27.814Z,100.00
2022-11-04T03:31:00.721Z,100.00
2022-11-04T03:33:34.788Z,100.00
2022-11-04T03:36:04.518Z,100.00
2022-11-04T03:38:32.903Z,100.00
2022-11-04T03:41:02.678Z,100.00
2022-11-04T03:43:31.741Z,100.00
2022-11-04T03:46:01.416Z,100.00
2022-11-04T03:48:29.895Z,100.00
2022-11-04T03:50:59.453Z,100.00
2022-11-04T03:53:29.442Z,100.00
2022-11-04T03:56:12.341Z,100.00
2022-11-04T03:58:45.318Z,100.00
2022-11-04T04:01:25.272Z,100.00
2022-11-04T04:03:58.006Z,100.00
2022-11-04T04:06:28.706Z,100.00
2022-11-04T04:08:58.532Z,100.00
2022-11-04T04:11:33.946Z,100.00
2022-11-04T04:14:05.377Z,100.00
2022-11-04T04:16:36.791Z,100.00
2022-11-04T04:19:07.989Z,100.00
2022-11-04T04:21:41.190Z,100.00
2022-11-04T04:24:28.687Z,100.00
2022-11-04T04:27:15.172Z,100.00
2022-11-04T04:29:44.754Z,100.00
2022-11-04T04:32:14.838Z,100.00
2022-11-04T04:34:43.170Z,100.00
2022-11-04T04:37:16.134Z,100.00
2022-11-04T04:40:05.610Z,100.00
2022-11-04T04:42:51.920Z,100.00
2022-11-04T04:45:23.520Z,100.00
2022-11-04T04:47:53.857Z,100.00
2022-11-04T04:50:23.066Z,100.00
2022-11-04T04:52:53.349Z,100.00
2022-11-04T04:55:21.784Z,100.00
2022-11-04T04:57:50.149Z,100.00
2022-11-04T05:00:20.654Z,100.00
2022-11-04T05:02:49.841Z,100.00
2022-11-04T05:05:20.034Z,100.00
2022-11-04T05:07:48.748Z,100.00
2022-11-04T05:10:18.055Z,100.00
2022-11-04T05:13:04.181Z,100.00
2022-11-04T05:15:32.982Z,100.00
2022-11-04T05:18:04.303Z,100.00
2022-11-04T05:20:34.393Z,100.00
2022-11-04T05:23:02.832Z,100.00
2022-11-04T05:25:31.272Z,100.00
2022-11-04T05:28:01.280Z,100.00
2022-11-04T05:30:29.906Z,100.00
2022-11-04T05:33:01.586Z,100.00
2022-11-04T05:35:35.079Z,100.00
2022-11-04T05:38:03.414Z,100.00
2022-11-04T05:40:31.737Z,100.00
2022-11-04T05:43:00.576Z,100.00
2022-11-04T05:45:29.657Z,100.00
2022-11-04T05:48:01.230Z,100.00
2022-11-04T05:50:29.883Z,100.00
2022-11-04T05:52:59.985Z,100.00
2022-11-04T05:55:28.776Z,100.00
2022-11-04T05:57:59.248Z,100.00
2022-11-04T06:00:28.609Z,100.00
2022-11-04T06:02:58.235Z,100.00
2022-11-04T06:05:26.962Z,100.00
2022-11-04T06:07:55.468Z,100.00
2022-11-04T06:10:25.921Z,100.00
2022-11-04T06:12:54.319Z,100.00
2022-11-04T06:15:22.653Z,100.00
2022-11-04T06:17:50.902Z,100.00
2022-11-04T06:20:19.302Z,100.00
2022-11-04T06:22:47.552Z,100.00
2022-11-04T06:25:15.907Z,100.00
2022-11-04T06:27:45.642Z,100.00
2022-11-04T06:30:14.849Z,100.00
2022-11-04T06:35:29.133Z,100.00
2022-11-04T06:37:57.421Z,100.00
2022-11-04T06:40:26.900Z,100.00
2022-11-04T06:42:56.648Z,100.00
2022-11-04T06:45:25.011Z,100.00
2022-11-04T06:47:53.363Z,100.00
2022-11-04T06:50:21.836Z,100.00
2022-11-04T06:52:50.150Z,100.00
2022-11-04T06:55:18.400Z,100.00
2022-11-04T06:57:46.659Z,100.00
2022-11-04T07:00:17.088Z,100.00
2022-11-04T07:02:45.511Z,100.00
2022-11-04T07:05:14.713Z,100.00
2022-11-04T07:07:42.980Z,100.00
2022-11-04T07:10:11.773Z,100.00
2022-11-04T07:12:40.073Z,100.00
2022-11-04T07:15:09.318Z,100.00
2022-11-04T07:17:39.098Z,100.00
2022-11-04T07:20:08.338Z,100.00
2022-11-04T07:22:36.783Z,100.00
2022-11-04T07:25:05.798Z,100.00
2022-11-04T07:27:34.154Z,100.00
2022-11-04T07:30:02.523Z,100.00
2022-11-04T07:32:31.796Z,100.00
2022-11-04T07:35:02.737Z,100.00
2022-11-04T07:37:31.082Z,100.00
2022-11-04T07:39:59.407Z,100.00
2022-11-04T07:42:27.743Z,100.00
2022-11-04T07:44:55.996Z,100.00
2022-11-04T07:47:24.526Z,100.00
2022-11-04T07:49:52.860Z,100.00
2022-11-04T07:52:22.568Z,100.00
2022-11-04T07:54:50.966Z,100.00
2022-11-04T07:57:19.285Z,100.00
2022-11-04T07:59:47.652Z,100.00
2022-11-04T08:02:19.615Z,100.00
2022-11-04T08:04:53.877Z,100.00
2022-11-04T08:07:23.670Z,100.00
2022-11-04T08:09:52.157Z,100.00
2022-11-04T08:12:22.216Z,100.00
2022-11-04T08:14:50.602Z,100.00
2022-11-04T08:17:18.877Z,100.00
2022-11-04T08:19:47.223Z,100.00
2022-11-04T08:22:15.515Z,100.00
2022-11-04T08:24:47.267Z,100.00
2022-11-04T08:27:15.698Z,100.00
2022-11-04T08:29:44.034Z,100.00
2022-11-04T08:32:12.326Z,100.00
2022-11-04T08:34:42.171Z,100.00
2022-11-04T08:37:10.461Z,100.00
2022-11-04T08:39:38.761Z,100.00
2022-11-04T08:42:08.657Z,100.00
2022-11-04T08:44:37.033Z,100.00
2022-11-04T08:47:05.446Z,100.00
2022-11-04T08:49:33.899Z,100.00
2022-11-04T08:52:02.149Z,100.00
2022-11-04T08:54:30.488Z,100.00
2022-11-04T08:56:58.982Z,100.00
2022-11-04T08:59:28.766Z,100.00
2022-11-04T09:01:57.373Z,100.00
2022-11-04T09:04:26.734Z,100.00
2022-11-04T09:06:56.266Z,100.00
2022-11-04T09:09:24.631Z,100.00
2022-11-04T09:11:54.010Z,100.00
2022-11-04T09:14:23.797Z,100.00
2022-11-04T09:16:56.225Z,100.00
2022-11-04T09:19:24.629Z,100.00
2022-11-04T09:21:52.906Z,100.00
2022-11-04T09:24:21.221Z,100.00
2022-11-04T09:26:49.572Z,100.00
2022-11-04T09:29:17.831Z,100.00
2022-11-04T09:31:46.263Z,100.00
2022-11-04T09:34:15.938Z,100.00
2022-11-04T09:36:44.897Z,100.00
2022-11-04T09:39:13.239Z,100.00
2022-11-04T09:42:02.371Z,100.00
2022-11-04T09:44:53.392Z,100.00
2022-11-04T09:47:25.654Z,100.00
2022-11-04T09:49:58.660Z,100.00
2022-11-04T09:52:30.156Z,100.00
2022-11-04T09:55:02.895Z,100.00
2022-11-04T09:57:33.572Z,100.00
2022-11-04T10:00:01.934Z,100.00
2022-11-04T10:02:43.178Z,100.00
2022-11-04T10:05:20.819Z,100.00
2022-11-04T10:08:01.655Z,100.00
2022-11-04T10:10:35.216Z,100.00
2022-11-04T10:13:18.684Z,100.00
2022-11-04T10:16:05.278Z,100.00
2022-11-04T10:19:06.204Z,100.00
2022-11-04T10:21:45.252Z,100.00
2022-11-04T10:24:21.020Z,100.00
2022-11-04T10:26:57.551Z,100.00
2022-11-04T10:29:32.187Z,100.00
2022-11-04T10:32:03.998Z,100.00
2022-11-04T10:34:36.951Z,100.00
2022-11-04T10:37:10.750Z,100.00
2022-11-04T10:39:42.698Z,100.00
2022-11-04T10:42:11.633Z,100.00
2022-11-04T10:44:40.284Z,100.00
2022-11-04T10:47:18.473Z,100.00
2022-11-04T10:50:28.424Z,100.00
2022-11-04T10:53:11.512Z,100.00
2022-11-04T10:55:44.136Z,100.00
2022-11-04T10:58:18.495Z,100.00
2022-11-04T11:00:46.928Z,100.00
2022-11-04T11:03:27.157Z,100.00
2022-11-04T11:05:58.239Z,100.00
2022-11-04T11:08:31.538Z,100.00
2022-11-04T11:10:59.938Z,100.00
2022-11-04T11:13:35.609Z,100.00
2022-11-04T11:16:09.368Z,100.00
2022-11-04T11:18:38.557Z,100.00
2022-11-04T11:21:12.745Z,100.00
2022-11-04T11:23:45.329Z,100.00
2022-11-04T11:26:15.737Z,100.00
2022-11-04T11:28:53.117Z,100.00
2022-11-04T11:31:26.730Z,100.00
2022-11-04T11:33:57.891Z,100.00
2022-11-04T11:36:27.590Z,100.00
2022-11-04T11:39:04.167Z,100.00
2022-11-04T11:41:33.809Z,100.00
2022-11-04T11:44:04.814Z,100.00
2022-11-04T11:46:35.359Z,100.00
2022-11-04T11:49:04.552Z,100.00
2022-11-04T11:51:34.556Z,100.00
2022-11-04T11:54:17.251Z,100.00
2022-11-04T11:57:12.573Z,100.00
2022-11-04T12:02:40.002Z,100.00
2022-11-04T12:10:58.397Z,100.00
2022-11-04T12:13:29.237Z,100.00
2022-11-04T12:16:10.541Z,100.00
2022-11-04T12:19:04.537Z,100.00
2022-11-04T12:21:35.038Z,100.00
2022-11-04T12:24:11.082Z,100.00
2022-11-04T12:26:44.917Z,100.00
2022-11-04T12:29:27.820Z,100.00
2022-11-04T12:32:02.915Z,100.00
2022-11-04T12:34:40.413Z,100.00
2022-11-04T12:37:17.609Z,100.00
2022-11-04T12:39:58.604Z,100.00
2022-11-04T12:42:39.606Z,100.00
2022-11-04T12:45:19.138Z,100.00
2022-11-04T12:47:48.547Z,100.00
2022-11-04T12:50:29.984Z,100.00
2022-11-04T12:53:21.663Z,100.00
2022-11-04T12:55:56.957Z,100.00
2022-11-04T12:58:40.819Z,100.00
2022-11-04T13:01:15.542Z,100.00
2022-11-04T13:03:50.121Z,100.00
2022-11-04T13:06:20.833Z,100.00
2022-11-04T13:08:51.993Z,100.00
2022-11-04T13:11:24.809Z,100.00
2022-11-04T13:14:02.245Z,100.00
2022-11-04T13:16:31.890Z,100.00
2022-11-04T13:19:00.463Z,100.00
2022-11-04T13:21:31.912Z,100.00
2022-11-04T13:24:04.383Z,100.00
2022-11-04T13:26:33.377Z,100.00
2022-11-04T13:29:09.182Z,100.00
2022-11-04T13:31:48.187Z,100.00
2022-11-04T13:34:24.567Z,98.43
2022-11-04T13:36:59.772Z,100.00
2022-11-04T13:39:33.129Z,100.00
2022-11-04T13:42:37.064Z,100.00
2022-11-04T13:45:11.855Z,100.00
2022-11-04T13:47:46.512Z,99.89
2022-11-04T13:50:30.270Z,100.00
2022-11-04T13:52:58.605Z,100.00
2022-11-04T13:55:26.924Z,100.00
2022-11-04T13:57:57.311Z,100.00
2022-11-04T14:00:28.514Z,99.97
2022-11-04T14:02:58.182Z,100.00
2022-11-04T14:06:06.614Z,100.00
2022-11-04T14:08:35.156Z,100.00
2022-11-04T14:11:10.249Z,100.00
2022-11-04T14:13:48.827Z,100.00
2022-11-04T14:16:43.260Z,100.00
2022-11-04T14:19:56.856Z,100.00
2022-11-04T14:22:36.914Z,100.00
2022-11-04T14:25:21.691Z,100.00
2022-11-04T14:27:51.358Z,100.00
2022-11-04T14:30:34.731Z,100.00
2022-11-04T14:33:06.807Z,100.00
2022-11-04T14:35:35.882Z,100.00
2022-11-04T14:38:08.816Z,100.00
2022-11-04T14:40:48.799Z,100.00
2022-11-04T14:43:29.412Z,100.00
2022-11-04T14:45:57.580Z,100.00
2022-11-04T14:48:28.013Z,100.00
2022-11-04T14:50:58.022Z,100.00
2022-11-04T14:53:30.544Z,100.00
2022-11-04T14:56:06.590Z,100.00
2022-11-04T14:58:34.986Z,100.00
2022-11-04T15:01:04.244Z,100.00
2022-11-04T15:06:40.253Z,100.00
2022-11-04T15:09:23.081Z,100.00
2022-11-04T15:12:08.888Z,100.00
2022-11-04T15:14:38.079Z,100.00
2022-11-04T15:17:06.464Z,100.00
2022-11-04T15:19:36.853Z,100.00
2022-11-04T15:22:06.827Z,98.19
2022-11-04T15:24:35.811Z,99.41
2022-11-04T15:27:06.318Z,90.00
2022-11-04T15:29:34.730Z,91.66
2022-11-04T15:32:05.852Z,92.98
2022-11-04T15:34:36.706Z,93.33
2022-11-04T15:37:06.373Z,86.90
2022-11-04T15:39:37.835Z,88.14
2022-11-04T15:42:25.908Z,89.41
2022-11-04T15:44:55.382Z,92.11
2022-11-04T15:47:25.860Z,100.00
2022-11-04T15:50:03.293Z,89.81
2022-11-04T15:52:31.667Z,87.42
2022-11-04T15:55:00.995Z,96.23
2022-11-04T15:57:32.510Z,89.17
2022-11-04T16:00:06.173Z,90.31
2022-11-04T16:02:37.143Z,90.19
2022-11-04T16:05:37.400Z,89.06
2022-11-04T16:08:20.626Z,98.13
2022-11-04T16:10:49.511Z,94.86
2022-11-04T16:13:25.825Z,94.91
2022-11-04T16:16:09.079Z,91.57
2022-11-04T16:18:38.972Z,100.00
2022-11-04T16:21:11.067Z,96.52
2022-11-04T16:23:44.614Z,100.00
2022-11-04T16:26:14.673Z,93.61
2022-11-04T16:28:43.301Z,92.15
2022-11-04T16:31:26.234Z,84.22
2022-11-04T16:33:54.558Z,87.06
2022-11-04T16:36:34.037Z,82.34
2022-11-04T16:39:04.628Z,80.10
2022-11-04T16:41:36.141Z,80.53
2022-11-04T16:44:05.475Z,80.23
2022-11-04T16:46:34.654Z,97.42
2022-11-04T16:49:03.010Z,91.83
2022-11-04T16:51:34.369Z,97.17
2022-11-04T16:54:02.606Z,95.17
2022-11-04T16:56:32.522Z,89.32
2022-11-04T16:59:00.969Z,88.60
2022-11-04T17:01:29.417Z,87.36
2022-11-04T17:03:57.806Z,99.61
2022-11-04T17:06:26.378Z,100.00
2022-11-04T17:08:56.274Z,100.00
2022-11-04T17:11:24.563Z,96.74
2022-11-04T17:13:52.847Z,94.58
2022-11-04T17:16:21.140Z,93.15
2022-11-04T17:18:49.407Z,89.43
2022-11-04T17:21:18.937Z,92.05
2022-11-04T17:23:47.737Z,86.21
2022-11-04T17:26:17.445Z,89.92
2022-11-04T17:28:45.886Z,99.75
2022-11-04T17:31:17.633Z,96.13
2022-11-04T17:33:45.903Z,97.87
2022-11-04T17:36:17.213Z,98.21
2022-11-04T17:38:45.577Z,100.00
2022-11-04T17:41:31.494Z,97.12
2022-11-04T17:44:01.236Z,88.99
2022-11-04T17:46:37.821Z,100.00
2022-11-04T17:49:12.852Z,91.46
2022-11-04T17:51:42.754Z,100.00
2022-11-04T17:54:11.466Z,97.80
2022-11-04T17:56:40.624Z,100.00
2022-11-04T17:59:11.581Z,93.99
2022-11-04T18:01:40.718Z,96.12
2022-11-04T18:04:09.264Z,100.00
2022-11-04T18:06:39.720Z,92.98
2022-11-04T18:09:11.230Z,98.07
2022-11-04T18:11:57.588Z,98.33
2022-11-04T18:14:27.438Z,100.00
2022-11-04T18:16:55.770Z,100.00
2022-11-04T18:19:24.882Z,95.35
2022-11-04T18:21:53.204Z,95.71
2022-11-04T18:24:21.633Z,98.87
2022-11-04T18:26:50.124Z,98.45
2022-11-04T18:29:18.553Z,100.00
2022-11-04T18:31:49.757Z,98.36
2022-11-04T18:34:19.764Z,99.97
2022-11-04T18:36:48.899Z,96.71
2022-11-04T18:39:21.211Z,93.82
2022-11-04T18:41:49.528Z,92.34
2022-11-04T18:44:19.821Z,92.01
2022-11-04T18:46:50.269Z,91.37
2022-11-04T18:49:20.630Z,90.49
2022-11-04T18:51:48.914Z,94.60
2022-11-04T18:54:17.263Z,93.25
2022-11-04T18:56:45.497Z,100.00
2022-11-04T18:59:15.370Z,100.00
2022-11-04T19:01:45.549Z,100.00
2022-11-04T19:04:15.566Z,100.00
2022-11-04T19:06:45.353Z,100.00
2022-11-04T19:12:21.223Z,100.00
2022-11-04T19:14:49.476Z,100.00
2022-11-04T19:17:17.745Z,100.00
2022-11-04T19:19:47.664Z,100.00
2022-11-04T19:22:15.934Z,100.00
2022-11-04T19:24:44.208Z,100.00
2022-11-04T19:27:12.497Z,100.00
2022-11-04T19:29:40.840Z,100.00
2022-11-04T19:32:13.786Z,100.00
2022-11-04T19:34:42.846Z,100.00
2022-11-04T19:37:12.541Z,100.00
2022-11-04T19:39:41.060Z,100.00
2022-11-04T19:42:28.476Z,100.00
2022-11-04T19:44:57.848Z,100.00
2022-11-04T19:47:26.179Z,100.00
2022-11-04T19:49:55.461Z,100.00
2022-11-04T19:52:25.251Z,100.00
2022-11-04T19:54:53.540Z,100.00
2022-11-04T19:57:21.786Z,100.00
2022-11-04T19:59:51.120Z,100.00
2022-11-04T20:02:19.736Z,100.00
2022-11-04T20:04:50.175Z,100.00
2022-11-04T20:07:18.999Z,100.00
2022-11-04T20:09:48.906Z,100.00
2022-11-04T20:12:34.721Z,100.00
2022-11-04T20:15:03.033Z,100.00
2022-11-04T20:17:32.834Z,100.00
2022-11-04T20:20:01.115Z,100.00
2022-11-04T20:22:29.449Z,100.00
2022-11-04T20:24:59.125Z,100.00
2022-11-04T20:27:27.422Z,100.00
2022-11-04T20:29:55.728Z,100.00
2022-11-04T20:32:24.070Z,100.00
2022-11-04T20:34:53.428Z,100.00
2022-11-04T20:37:21.692Z,100.00
2022-11-04T20:39:50.025Z,100.00
2022-11-04T20:42:19.745Z,100.00
2022-11-04T20:44:48.894Z,100.00
2022-11-04T20:47:17.892Z,100.00
2022-11-04T20:49:46.259Z,100.00
2022-11-04T20:52:15.567Z,100.00
2022-11-04T20:54:43.968Z,100.00
2022-11-04T20:57:12.315Z,100.00
2022-11-04T20:59:41.957Z,100.00
2022-11-04T21:02:12.296Z,100.00
2022-11-04T21:04:40.781Z,100.00
2022-11-04T21:07:09.381Z,100.00
2022-11-04T21:09:37.784Z,100.00
2022-11-04T21:12:06.751Z,100.00
2022-11-04T21:14:35.626Z,100.00
2022-11-04T21:17:06.070Z,100.00
2022-11-04T21:19:34.345Z,100.00
2022-11-04T21:22:02.682Z,100.00
2022-11-04T21:24:36.384Z,100.00
2022-11-04T21:27:07.419Z,100.00
2022-11-04T21:29:35.775Z,100.00
2022-11-04T21:32:05.949Z,100.00
2022-11-04T21:34:34.226Z,100.00
2022-11-04T21:37:02.480Z,100.00
2022-11-04T21:39:30.992Z,97.31
2022-11-04T21:41:59.247Z,98.55
2022-11-04T21:44:27.695Z,100.00
2022-11-04T21:46:55.940Z,100.00
2022-11-04T21:49:25.572Z,100.00
2022-11-04T21:51:53.952Z,100.00
2022-11-04T21:54:22.225Z,100.00
2022-11-04T21:56:51.791Z,100.00
2022-11-04T21:59:20.216Z,100.00
2022-11-04T22:01:48.592Z,100.00
2022-11-04T22:04:17.023Z,100.00
2022-11-04T22:06:47.063Z,100.00
2022-11-04T22:09:15.505Z,100.00
2022-11-04T22:11:43.829Z,100.00
2022-11-04T22:14:13.259Z,100.00
2022-11-04T22:16:41.897Z,100.00
2022-11-04T22:19:13.409Z,100.00
2022-11-04T22:21:42.932Z,100.00
2022-11-04T22:24:13.460Z,100.00
2022-11-04T22:26:42.001Z,100.00
2022-11-04T22:29:10.881Z,100.00
2022-11-04T22:31:41.480Z,100.00
2022-11-04T22:34:09.723Z,100.00
2022-11-04T22:36:38.048Z,100.00
2022-11-04T22:39:10.509Z,100.00
2022-11-04T22:41:43.750Z,100.00
2022-11-04T22:44:12.058Z,100.00
2022-11-04T22:46:40.360Z,100.00
2022-11-04T22:49:08.606Z,100.00
2022-11-04T22:51:36.875Z,100.00
2022-11-04T22:54:08.462Z,100.00
2022-11-04T22:56:37.484Z,100.00
2022-11-04T22:59:07.863Z,100.00
2022-11-04T23:01:36.524Z,100.00
2022-11-04T23:04:05.615Z,100.00
2022-11-04T23:06:33.907Z,100.00
2022-11-04T23:09:02.196Z,100.00
2022-11-04T23:11:49.061Z,100.00
2022-11-04T23:14:49.385Z,100.00
2022-11-04T23:17:37.156Z,100.00
2022-11-04T23:20:08.781Z,100.00
2022-11-04T23:22:54.714Z,100.00
2022-11-04T23:25:23.305Z,100.00
2022-11-04T23:28:10.623Z,100.00
2022-11-04T23:30:42.390Z,100.00
2022-11-04T23:33:12.395Z,98.22
2022-11-04T23:36:00.661Z,96.50
2022-11-04T23:38:29.607Z,94.53
2022-11-04T23:41:17.664Z,100.00
2022-11-04T23:43:46.352Z,100.00
2022-11-04T23:46:37.874Z,100.00
2022-11-04T23:49:28.633Z,100.00
2022-11-04T23:52:19.736Z,100.00
2022-11-04T23:55:05.650Z,100.00
2022-11-04T23:57:51.672Z,100.00
